createdAt,value
2019-03-27T00:00:15.291Z,496.5
2019-03-27T00:01:17.780Z,496.7
2019-03-27T00:02:19.984Z,496.6
2019-03-27T00:03:22.457Z,496.8
2019-03-27T00:04:24.929Z,496.8
2019-03-27T00:05:26.856Z,497
2019-03-27T00:06:29.338Z,497.1
2019-03-27T00:07:31.802Z,497.2
2019-03-27T00:08:33.708Z,497.5
2019-03-27T00:09:35.915Z,497.4
2019-03-27T00:10:38.382Z,497.4
2019-03-27T00:11:40.859Z,497.4
2019-03-27T00:12:43.347Z,497.4
2019-03-27T00:13:45.580Z,497.3
2019-03-27T00:14:48.064Z,497.1
2019-03-27T00:15:50.538Z,497.5
2019-03-27T00:16:53.046Z,497.6
2019-03-27T00:17:55.544Z,497.8
2019-03-27T00:18:58.066Z,497.6
2019-03-27T00:20:00.739Z,497.7
2019-03-27T00:21:02.910Z,497.5
2019-03-27T00:22:05.084Z,497.5
2019-03-27T00:23:07.568Z,496.7
2019-03-27T00:24:09.764Z,497.4
2019-03-27T00:25:11.721Z,497.2
2019-03-27T00:26:14.208Z,497.2
2019-03-27T00:27:16.688Z,497.2
2019-03-27T00:28:19.171Z,497.6
2019-03-27T00:29:21.358Z,497.2
2019-03-27T00:30:23.574Z,497.1
2019-03-27T00:31:26.118Z,497.5
2019-03-27T00:32:28.606Z,497.2
2019-03-27T00:33:31.107Z,497.3
2019-03-27T00:34:33.315Z,497.4
2019-03-27T00:35:35.522Z,497.5
2019-03-27T00:36:38.012Z,497
2019-03-27T00:37:40.492Z,497.1
2019-03-27T00:38:42.970Z,496.6
2019-03-27T00:39:45.459Z,496.8
2019-03-27T00:40:47.944Z,496.4
2019-03-27T00:41:50.126Z,496.6
2019-03-27T00:42:52.292Z,496.8
2019-03-27T00:43:54.498Z,497
2019-03-27T00:44:57.012Z,496.5
2019-03-27T00:45:59.492Z,496.6
2019-03-27T00:47:01.967Z,496.5
2019-03-27T00:48:04.162Z,496.2
2019-03-27T00:49:06.332Z,497.1
2019-03-27T00:50:08.801Z,497.1
2019-03-27T00:51:11.288Z,496.9
2019-03-27T00:52:13.770Z,497
2019-03-27T00:53:15.945Z,496.9
2019-03-27T00:54:18.414Z,497
2019-03-27T00:55:20.906Z,497.6
2019-03-27T00:56:23.377Z,497.4
2019-03-27T00:57:25.847Z,497.4
2019-03-27T00:58:28.331Z,497.4
2019-03-27T00:59:30.802Z,497.4
2019-03-27T01:00:33.266Z,497.3
2019-03-27T01:01:35.748Z,497.2
2019-03-27T01:02:38.218Z,497.4
2019-03-27T01:03:40.432Z,496.6
2019-03-27T01:04:42.907Z,497.1
2019-03-27T01:05:45.382Z,497.1
2019-03-27T01:06:50.799Z,497.3
2019-03-27T01:07:54.801Z,497.3
2019-03-27T01:08:56.718Z,497.6
2019-03-27T01:09:59.182Z,497.7
2019-03-27T01:11:01.392Z,497.9
2019-03-27T01:12:03.594Z,498.2
2019-03-27T01:13:06.067Z,497.7
2019-03-27T01:14:08.325Z,497.8
2019-03-27T01:15:10.803Z,497.9
2019-03-27T01:16:13.306Z,498
2019-03-27T01:17:15.817Z,497.4
2019-03-27T01:18:18.294Z,497.7
2019-03-27T01:19:20.770Z,497.8
2019-03-27T01:20:23.257Z,497.9
2019-03-27T01:21:25.743Z,497.9
2019-03-27T01:22:28.225Z,497.7
2019-03-27T01:23:30.438Z,498
2019-03-27T01:24:32.643Z,498.1
2019-03-27T01:25:35.113Z,498.7
2019-03-27T01:26:37.313Z,498.6
2019-03-27T01:27:39.525Z,498.9
2019-03-27T01:28:41.761Z,499
2019-03-27T01:29:44.242Z,498.6
2019-03-27T01:30:46.469Z,498.7
2019-03-27T01:31:48.949Z,498.9
2019-03-27T01:32:51.429Z,499.2
2019-03-27T01:33:53.631Z,498.9
2019-03-27T01:34:56.110Z,499.2
2019-03-27T01:35:58.303Z,499.3
2019-03-27T01:37:00.774Z,499.5
2019-03-27T01:38:03.240Z,499.2
2019-03-27T01:39:05.722Z,499.2
2019-03-27T01:40:07.944Z,499.1
2019-03-27T01:41:10.417Z,499.1
2019-03-27T01:42:12.896Z,499.1
2019-03-27T01:43:15.101Z,499.2
2019-03-27T01:44:17.562Z,499
2019-03-27T01:45:20.025Z,499.1
2019-03-27T01:46:22.227Z,499
2019-03-27T01:47:24.689Z,499
2019-03-27T01:48:26.891Z,499.2
2019-03-27T01:49:29.082Z,499.2
2019-03-27T01:50:31.553Z,499
2019-03-27T01:51:33.754Z,499
2019-03-27T01:52:36.233Z,499.1
2019-03-27T01:53:38.717Z,498.6
2019-03-27T01:54:40.612Z,499
2019-03-27T01:55:43.081Z,498.4
2019-03-27T01:56:45.565Z,498.6
2019-03-27T01:57:47.773Z,498.7
2019-03-27T01:58:49.415Z,498.3
2019-03-27T01:59:51.623Z,498.3
2019-03-27T02:00:54.104Z,498.3
2019-03-27T02:01:56.297Z,498.2
2019-03-27T02:02:58.517Z,498.6
2019-03-27T02:04:00.772Z,498.2
2019-03-27T02:05:02.953Z,498.4
2019-03-27T02:06:05.436Z,497.9
2019-03-27T02:07:07.948Z,498.1
2019-03-27T02:08:10.423Z,498.2
2019-03-27T02:09:12.643Z,497.6
2019-03-27T02:10:14.824Z,497.7
2019-03-27T02:11:17.305Z,497.7
2019-03-27T02:12:19.779Z,497.6
2019-03-27T02:13:22.257Z,497.5
2019-03-27T02:14:24.463Z,497.2
2019-03-27T02:15:26.628Z,497.1
2019-03-27T02:16:28.831Z,497.1
2019-03-27T02:17:31.046Z,497
2019-03-27T02:18:33.301Z,497.4
2019-03-27T02:19:35.771Z,497.3
2019-03-27T02:20:38.240Z,497.7
2019-03-27T02:21:40.713Z,497.8
2019-03-27T02:22:42.894Z,498.1
2019-03-27T02:23:45.219Z,497.9
2019-03-27T02:24:47.742Z,498
2019-03-27T02:25:50.225Z,497.6
2019-03-27T02:26:52.431Z,497.8
2019-03-27T02:27:54.626Z,497.7
2019-03-27T02:28:57.094Z,498.2
2019-03-27T02:29:59.293Z,498.1
2019-03-27T02:31:01.522Z,497.5
2019-03-27T02:32:04.004Z,497.4
2019-03-27T02:33:06.511Z,497.6
2019-03-27T02:34:08.838Z,497.8
2019-03-27T02:35:10.807Z,497.5
2019-03-27T02:36:12.990Z,497.2
2019-03-27T02:37:15.594Z,497.5
2019-03-27T02:38:17.542Z,497.1
2019-03-27T02:39:20.022Z,497
2019-03-27T02:40:22.493Z,497.3
2019-03-27T02:41:24.964Z,497.2
2019-03-27T02:42:27.459Z,497.5
2019-03-27T02:43:29.918Z,497.1
2019-03-27T02:44:32.403Z,497.4
2019-03-27T02:45:34.884Z,497.4
2019-03-27T02:46:37.374Z,497.2
2019-03-27T02:47:39.863Z,497.3
2019-03-27T02:48:42.354Z,497.2
2019-03-27T02:49:44.869Z,497
2019-03-27T02:50:46.778Z,496.9
2019-03-27T02:51:49.077Z,496.9
2019-03-27T02:52:51.600Z,496.6
2019-03-27T02:53:54.097Z,497.1
2019-03-27T02:54:56.317Z,496.8
2019-03-27T02:55:58.795Z,496.7
2019-03-27T02:57:01.297Z,496.9
2019-03-27T02:58:03.786Z,496.8
2019-03-27T02:59:05.994Z,496.7
2019-03-27T03:00:08.219Z,497
2019-03-27T03:01:10.698Z,496.8
2019-03-27T03:02:13.160Z,496.8
2019-03-27T03:03:15.661Z,496.7
2019-03-27T03:04:18.143Z,496.9
2019-03-27T03:05:20.625Z,496.9
2019-03-27T03:06:23.082Z,497.1
2019-03-27T03:07:24.983Z,496.9
2019-03-27T03:08:27.201Z,496.9
2019-03-27T03:09:29.461Z,496.9
2019-03-27T03:10:31.964Z,497.2
2019-03-27T03:11:34.180Z,497.3
2019-03-27T03:12:36.664Z,497.1
2019-03-27T03:13:38.875Z,497
2019-03-27T03:14:41.334Z,497
2019-03-27T03:15:43.816Z,497.2
2019-03-27T03:16:46.307Z,497
2019-03-27T03:17:48.511Z,497.1
2019-03-27T03:18:50.850Z,497.3
2019-03-27T03:19:53.039Z,497.7
2019-03-27T03:20:55.497Z,497.2
2019-03-27T03:21:57.717Z,497.1
2019-03-27T03:23:00.205Z,497.6
2019-03-27T03:24:02.277Z,497.7
2019-03-27T03:25:04.502Z,497.8
2019-03-27T03:26:06.976Z,498.5
2019-03-27T03:27:09.457Z,498
2019-03-27T03:28:11.915Z,498.2
2019-03-27T03:29:14.106Z,498.1
2019-03-27T03:30:16.653Z,498
2019-03-27T03:31:19.188Z,498.1
2019-03-27T03:32:21.705Z,498
2019-03-27T03:33:23.954Z,497.6
2019-03-27T03:34:26.558Z,497.5
2019-03-27T03:35:28.765Z,497.8
2019-03-27T03:36:31.241Z,497.7
2019-03-27T03:37:33.447Z,497.3
2019-03-27T03:38:35.648Z,497.2
2019-03-27T03:39:38.144Z,497.3
2019-03-27T03:40:40.631Z,497.7
2019-03-27T03:41:42.875Z,497.8
2019-03-27T03:42:45.361Z,497.7
2019-03-27T03:43:47.818Z,497.6
2019-03-27T03:44:50.299Z,497.6
2019-03-27T03:45:52.805Z,497.9
2019-03-27T03:48:00.275Z,497.6
2019-03-27T03:49:02.752Z,497.3
2019-03-27T03:50:05.227Z,497.6
2019-03-27T03:51:07.173Z,497.9
2019-03-27T03:52:09.649Z,497.7
2019-03-27T03:53:12.197Z,497.4
2019-03-27T03:54:14.768Z,497.2
2019-03-27T03:55:17.235Z,497.6
2019-03-27T03:56:19.722Z,497.8
2019-03-27T03:57:22.201Z,497.4
2019-03-27T03:58:24.682Z,497.4
2019-03-27T03:59:26.902Z,497.3
2019-03-27T04:00:29.407Z,497.4
2019-03-27T04:01:31.884Z,497.2
2019-03-27T04:02:34.373Z,497.1
2019-03-27T04:03:36.863Z,497.3
2019-03-27T04:04:39.294Z,497
2019-03-27T04:05:41.495Z,497.1
2019-03-27T04:06:43.987Z,497.3
2019-03-27T04:07:46.463Z,496.8
2019-03-27T04:08:48.966Z,497.6
2019-03-27T04:09:51.435Z,497.1
2019-03-27T04:10:53.930Z,497.5
2019-03-27T04:11:56.397Z,497.3
2019-03-27T04:12:58.863Z,497.2
2019-03-27T04:14:01.365Z,497.1
2019-03-27T04:15:03.496Z,497
2019-03-27T04:16:06.022Z,497
2019-03-27T04:18:13.203Z,497.1
2019-03-27T04:19:15.692Z,496.9
2019-03-27T04:20:17.916Z,496.6
2019-03-27T04:21:20.406Z,496.7
2019-03-27T04:22:22.906Z,496.7
2019-03-27T04:23:25.381Z,496.9
2019-03-27T04:24:27.863Z,496.3
2019-03-27T04:25:53.814Z,496.7
2019-03-27T04:26:37.280Z,496.6
2019-03-27T04:27:39.485Z,496.4
2019-03-27T04:28:41.974Z,496.2
2019-03-27T04:29:44.175Z,496.4
2019-03-27T04:30:46.648Z,496.5
2019-03-27T04:31:48.609Z,495.8
2019-03-27T04:32:51.087Z,496.7
2019-03-27T04:33:53.593Z,496.5
2019-03-27T04:34:56.523Z,496.3
2019-03-27T04:35:59.053Z,496.5
2019-03-27T04:37:01.550Z,496.5
2019-03-27T04:38:03.785Z,496.1
2019-03-27T04:39:06.305Z,496.3
2019-03-27T04:40:08.780Z,496.2
2019-03-27T04:41:10.983Z,496.4
2019-03-27T04:42:12.917Z,496.5
2019-03-27T04:43:15.407Z,496
2019-03-27T04:44:17.891Z,496.1
2019-03-27T04:45:20.377Z,496
2019-03-27T04:46:22.279Z,496
2019-03-27T04:48:29.863Z,496.1
2019-03-27T04:49:32.051Z,496
2019-03-27T04:50:34.533Z,495.9
2019-03-27T04:51:37.013Z,495.9
2019-03-27T04:52:38.955Z,496
2019-03-27T04:53:41.153Z,496
2019-03-27T04:54:43.365Z,495.9
2019-03-27T04:55:45.314Z,495.8
2019-03-27T04:56:47.779Z,495.9
2019-03-27T04:57:50.248Z,495.8
2019-03-27T04:58:52.721Z,495.8
2019-03-27T04:59:54.925Z,495.7
2019-03-27T05:00:56.931Z,495.7
2019-03-27T05:01:59.397Z,495.5
2019-03-27T05:03:01.893Z,495.7
2019-03-27T05:04:03.846Z,495.5
2019-03-27T05:05:06.327Z,495.3
2019-03-27T05:06:08.791Z,495.4
2019-03-27T05:08:17.247Z,495.2
2019-03-27T05:09:19.745Z,495.3
2019-03-27T05:10:22.219Z,495
2019-03-27T05:11:24.695Z,495.2
2019-03-27T05:12:26.886Z,495.1
2019-03-27T05:13:28.533Z,494.6
2019-03-27T05:14:30.747Z,494.7
2019-03-27T05:15:32.939Z,494.3
2019-03-27T05:16:35.444Z,495
2019-03-27T05:18:42.894Z,494.6
2019-03-27T05:19:45.378Z,494.5
2019-03-27T05:20:47.851Z,494.2
2019-03-27T05:21:50.325Z,493.9
2019-03-27T05:22:52.517Z,493.6
2019-03-27T05:23:54.757Z,493.7
2019-03-27T05:24:57.220Z,493.5
2019-03-27T05:25:59.698Z,494
2019-03-27T05:27:01.894Z,493.5
2019-03-27T05:28:03.853Z,493.5
2019-03-27T05:29:06.029Z,493.3
2019-03-27T05:30:08.509Z,493.6
2019-03-27T05:31:10.987Z,493.1
2019-03-27T05:32:13.462Z,493.7
2019-03-27T05:33:15.954Z,493.2
2019-03-27T05:34:18.431Z,493.2
2019-03-27T05:35:20.895Z,493.3
2019-03-27T05:36:23.365Z,493.2
2019-03-27T05:37:25.852Z,493.1
2019-03-27T05:38:28.317Z,493.2
2019-03-27T05:39:29.957Z,492.9
2019-03-27T05:40:32.484Z,493
2019-03-27T05:41:34.964Z,492.6
2019-03-27T05:42:37.433Z,492.5
2019-03-27T05:43:39.903Z,492.4
2019-03-27T05:44:42.391Z,492.1
2019-03-27T05:45:44.869Z,492
2019-03-27T05:46:47.337Z,492.2
2019-03-27T05:48:54.522Z,492.3
2019-03-27T05:49:57.005Z,492.3
2019-03-27T05:50:59.476Z,492.5
2019-03-27T05:52:01.952Z,492.2
2019-03-27T05:53:04.443Z,492.3
2019-03-27T05:54:06.629Z,492.1
2019-03-27T05:55:09.110Z,492.1
2019-03-27T05:56:11.571Z,492.2
2019-03-27T05:57:13.463Z,491.9
2019-03-27T05:58:15.956Z,492
2019-03-27T05:59:18.427Z,492.4
2019-03-27T06:00:20.909Z,492.2
2019-03-27T06:01:23.416Z,491.7
2019-03-27T06:02:25.641Z,492.2
2019-03-27T06:03:27.845Z,492
2019-03-27T06:04:30.316Z,491.3
2019-03-27T06:05:32.873Z,491.5
2019-03-27T06:06:35.351Z,491.5
2019-03-27T06:07:37.583Z,491.6
2019-03-27T06:08:39.199Z,491.7
2019-03-27T06:09:41.401Z,491.6
2019-03-27T06:10:43.964Z,491.3
2019-03-27T06:11:45.874Z,491.4
2019-03-27T06:12:48.371Z,491.4
2019-03-27T06:13:50.858Z,491.2
2019-03-27T06:14:53.345Z,490.9
2019-03-27T06:15:55.877Z,490.7
2019-03-27T06:16:58.083Z,490.8
2019-03-27T06:19:05.550Z,490.6
2019-03-27T06:20:07.749Z,490.6
2019-03-27T06:21:09.942Z,490.9
2019-03-27T06:23:18.677Z,490.6
2019-03-27T06:24:21.157Z,490.4
2019-03-27T06:25:23.334Z,490.7
2019-03-27T06:26:25.807Z,490.3
2019-03-27T06:27:28.003Z,490.5
2019-03-27T06:28:30.222Z,490.4
2019-03-27T06:29:32.715Z,490.4
2019-03-27T06:30:35.191Z,490.2
2019-03-27T06:31:37.699Z,490.5
2019-03-27T06:32:40.161Z,490.5
2019-03-27T06:33:42.681Z,490.3
2019-03-27T06:34:45.174Z,490.7
2019-03-27T06:35:47.647Z,490.5
2019-03-27T06:36:49.832Z,490.7
2019-03-27T06:37:52.040Z,490.3
2019-03-27T06:38:54.288Z,490.6
2019-03-27T06:39:56.783Z,490.6
2019-03-27T06:40:58.985Z,490.4
2019-03-27T06:42:01.483Z,490.4
2019-03-27T06:43:03.975Z,490.5
2019-03-27T06:44:06.443Z,490.4
2019-03-27T06:45:08.937Z,490.3
2019-03-27T06:46:11.144Z,490.4
2019-03-27T06:47:12.803Z,490
2019-03-27T06:49:20.267Z,489.8
2019-03-27T06:50:22.754Z,489.9
2019-03-27T06:52:32.692Z,489.7
2019-03-27T06:53:35.156Z,489.3
2019-03-27T06:54:36.790Z,489.4
2019-03-27T06:55:39.263Z,489.4
2019-03-27T06:56:41.742Z,489.2
2019-03-27T06:57:44.208Z,489.5
2019-03-27T06:59:51.136Z,489.3
2019-03-27T07:00:53.621Z,489.3
2019-03-27T07:01:56.111Z,489.1
2019-03-27T07:02:58.595Z,488.8
2019-03-27T07:05:05.757Z,488.8
2019-03-27T07:06:08.219Z,488.7
2019-03-27T07:07:10.780Z,488.6
2019-03-27T07:08:13.297Z,488.7
2019-03-27T07:09:15.794Z,488.8
2019-03-27T07:10:18.005Z,489
2019-03-27T07:11:19.945Z,488.8
2019-03-27T07:12:23.622Z,488.6
2019-03-27T07:13:26.104Z,488.7
2019-03-27T07:14:28.587Z,488.2
2019-03-27T07:15:31.061Z,488.2
2019-03-27T07:16:33.276Z,488
2019-03-27T07:17:35.751Z,487.9
2019-03-27T07:19:43.209Z,487.9
2019-03-27T07:20:45.418Z,487.6
2019-03-27T07:21:47.894Z,488.2
2019-03-27T07:22:50.387Z,488
2019-03-27T07:23:52.864Z,488
2019-03-27T07:24:55.327Z,487.7
2019-03-27T07:25:57.808Z,487.6
2019-03-27T07:26:59.724Z,487.3
2019-03-27T07:28:01.919Z,487.6
2019-03-27T07:29:04.411Z,487.4
2019-03-27T07:30:06.040Z,487.6
2019-03-27T07:31:08.513Z,487.3
2019-03-27T07:32:10.707Z,487.3
2019-03-27T07:33:13.195Z,487.3
2019-03-27T07:34:15.682Z,487.2
2019-03-27T07:35:18.157Z,487.1
2019-03-27T07:36:20.639Z,486.9
2019-03-27T07:37:23.107Z,487.2
2019-03-27T07:38:25.580Z,486.8
2019-03-27T07:39:28.054Z,487.1
2019-03-27T07:40:30.268Z,486.8
2019-03-27T07:41:32.445Z,486.9
2019-03-27T07:42:34.922Z,486.7
2019-03-27T07:43:37.396Z,486.7
2019-03-27T07:44:39.615Z,486.4
2019-03-27T07:45:42.089Z,486.7
2019-03-27T07:46:44.361Z,486.5
2019-03-27T07:49:56.813Z,486.7
2019-03-27T07:50:59.276Z,486.6
2019-03-27T07:52:01.206Z,486.9
2019-03-27T07:53:03.462Z,486.6
2019-03-27T07:54:05.947Z,486.5
2019-03-27T07:56:13.126Z,486.2
2019-03-27T07:57:15.056Z,486.2
2019-03-27T07:58:17.264Z,486.5
2019-03-27T07:59:19.457Z,486.3
2019-03-27T08:00:21.653Z,486.2
2019-03-27T08:01:24.124Z,486.3
2019-03-27T08:02:26.669Z,486.3
2019-03-27T08:03:29.223Z,486.5
2019-03-27T08:04:31.816Z,486.3
2019-03-27T08:05:33.762Z,486.3
2019-03-27T08:06:36.237Z,486.5
2019-03-27T08:07:38.433Z,486.3
2019-03-27T08:08:40.360Z,486.9
2019-03-27T08:09:42.115Z,486.4
2019-03-27T08:10:44.581Z,486.5
2019-03-27T08:11:46.797Z,486.9
2019-03-27T08:12:49.295Z,486.7
2019-03-27T08:13:51.484Z,486.4
2019-03-27T08:14:53.746Z,486.8
2019-03-27T08:15:55.967Z,486.7
2019-03-27T08:16:58.184Z,486.5
2019-03-27T08:18:00.103Z,486.6
2019-03-27T08:20:07.559Z,486.7
2019-03-27T08:21:10.025Z,486.8
2019-03-27T08:22:12.222Z,486.7
2019-03-27T08:23:14.697Z,487.2
2019-03-27T08:24:16.892Z,487
2019-03-27T08:25:19.356Z,486.3
2019-03-27T08:26:21.822Z,486.4
2019-03-27T08:27:24.302Z,486.3
2019-03-27T08:28:26.797Z,486.4
2019-03-27T08:29:28.773Z,486.6
2019-03-27T08:30:31.002Z,486.5
2019-03-27T08:31:33.471Z,486.4
2019-03-27T08:33:40.943Z,486
2019-03-27T08:34:43.427Z,485.8
2019-03-27T08:35:45.914Z,485.2
2019-03-27T08:36:48.401Z,484.8
2019-03-27T08:37:50.941Z,485.3
2019-03-27T08:38:53.425Z,484.8
2019-03-27T08:39:55.907Z,485.3
2019-03-27T08:40:58.381Z,485.5
2019-03-27T08:42:00.845Z,485.3
2019-03-27T08:43:03.058Z,485.2
2019-03-27T08:44:05.541Z,485.2
2019-03-27T08:45:08.136Z,485.3
2019-03-27T08:46:10.611Z,484.7
2019-03-27T08:47:13.082Z,484.8
2019-03-27T08:48:15.557Z,484.8
2019-03-27T08:50:23.027Z,484.5
2019-03-27T08:51:25.509Z,484.5
2019-03-27T08:52:27.717Z,484.5
2019-03-27T08:53:30.231Z,484.2
2019-03-27T08:54:32.716Z,484.4
2019-03-27T08:55:35.190Z,484.5
2019-03-27T08:56:37.382Z,484.4
2019-03-27T08:57:39.872Z,484.6
2019-03-27T08:58:42.058Z,484.8
2019-03-27T08:59:44.619Z,484.5
2019-03-27T09:00:47.194Z,484.6
2019-03-27T09:01:49.680Z,484.4
2019-03-27T09:02:52.160Z,484.4
2019-03-27T09:03:54.636Z,484.4
2019-03-27T09:04:57.113Z,484.1
2019-03-27T09:05:59.064Z,484
2019-03-27T09:07:01.546Z,483.7
2019-03-27T09:08:04.010Z,483.7
2019-03-27T09:09:06.482Z,483.6
2019-03-27T09:10:08.696Z,483.5
2019-03-27T09:11:10.879Z,483.4
2019-03-27T09:12:13.074Z,483.1
2019-03-27T09:13:15.275Z,483.3
2019-03-27T09:14:17.750Z,483
2019-03-27T09:15:19.912Z,483.3
2019-03-27T09:16:22.390Z,483.4
2019-03-27T09:17:24.875Z,483.3
2019-03-27T09:18:27.035Z,483.3
2019-03-27T09:20:34.239Z,483.6
2019-03-27T09:21:36.725Z,483.2
2019-03-27T09:22:39.191Z,483.5
2019-03-27T09:23:41.663Z,483.3
2019-03-27T09:24:44.135Z,482.8
2019-03-27T09:25:46.614Z,483
2019-03-27T09:26:48.815Z,482.3
2019-03-27T09:27:51.339Z,482.3
2019-03-27T09:28:53.826Z,482.4
2019-03-27T09:29:56.332Z,482.1
2019-03-27T09:30:58.827Z,482.4
2019-03-27T09:32:01.025Z,482.4
2019-03-27T09:33:03.244Z,482.3
2019-03-27T09:34:05.461Z,482.4
2019-03-27T09:35:07.942Z,482.4
2019-03-27T09:36:11.044Z,482.2
2019-03-27T09:37:13.616Z,482.1
2019-03-27T09:38:16.107Z,481.9
2019-03-27T09:39:18.556Z,482.1
2019-03-27T09:40:20.764Z,481.7
2019-03-27T09:41:23.385Z,481.4
2019-03-27T09:42:25.618Z,481.4
2019-03-27T09:43:28.095Z,481.7
2019-03-27T09:44:30.577Z,481.7
2019-03-27T09:45:32.784Z,481.6
2019-03-27T09:46:35.271Z,481.5
2019-03-27T09:47:37.478Z,481.9
2019-03-27T09:48:39.956Z,481.5
2019-03-27T09:50:47.473Z,481.4
2019-03-27T09:51:49.680Z,481.4
2019-03-27T09:52:51.317Z,481
2019-03-27T09:53:55.365Z,481.4
2019-03-27T09:54:57.560Z,481.3
2019-03-27T09:56:00.042Z,481.6
2019-03-27T09:57:02.237Z,481.2
2019-03-27T09:58:04.713Z,481.2
2019-03-27T09:59:08.110Z,481.1
2019-03-27T10:00:10.597Z,481.1
2019-03-27T10:01:12.540Z,481
2019-03-27T10:02:15.084Z,480.6
2019-03-27T10:03:17.581Z,480.6
2019-03-27T10:04:19.778Z,481
2019-03-27T10:05:22.274Z,480.8
2019-03-27T10:06:24.474Z,480.8
2019-03-27T10:07:26.957Z,481.5
2019-03-27T10:08:29.167Z,481.3
2019-03-27T10:09:31.339Z,481
2019-03-27T10:10:33.815Z,480.9
2019-03-27T10:11:35.983Z,481.3
2019-03-27T10:12:38.191Z,481
2019-03-27T10:13:40.725Z,481
2019-03-27T10:14:42.953Z,480.6
2019-03-27T10:15:45.430Z,481
2019-03-27T10:16:47.924Z,481.2
2019-03-27T10:17:50.144Z,481
2019-03-27T10:18:52.620Z,481.2
2019-03-27T10:20:59.548Z,481.5
2019-03-27T10:22:01.483Z,481.4
2019-03-27T10:23:03.672Z,481.5
2019-03-27T10:24:06.146Z,481.5
2019-03-27T10:25:08.346Z,481.2
2019-03-27T10:26:10.812Z,481.4
2019-03-27T10:27:12.748Z,481.2
2019-03-27T10:28:14.942Z,481.3
2019-03-27T10:29:17.482Z,481.2
2019-03-27T10:30:19.964Z,481.5
2019-03-27T10:31:22.445Z,481
2019-03-27T10:32:24.917Z,480.9
2019-03-27T10:33:27.389Z,481.1
2019-03-27T10:34:29.608Z,480.8
2019-03-27T10:35:31.543Z,481.1
2019-03-27T10:36:34.014Z,481.3
2019-03-27T10:37:36.508Z,481.3
2019-03-27T10:39:45.159Z,481.4
2019-03-27T10:40:47.338Z,480.9
2019-03-27T10:41:49.832Z,481
2019-03-27T10:42:52.040Z,481.2
2019-03-27T10:43:54.535Z,481.1
2019-03-27T10:44:56.742Z,481.6
2019-03-27T10:45:58.654Z,481.5
2019-03-27T10:47:01.139Z,482
2019-03-27T10:48:03.600Z,481.6
2019-03-27T10:49:06.064Z,481.7
2019-03-27T10:51:13.261Z,481.9
2019-03-27T10:52:15.530Z,481.7
2019-03-27T10:53:18.003Z,481.9
2019-03-27T10:54:20.491Z,481.7
2019-03-27T10:55:22.961Z,481.7
2019-03-27T10:56:25.430Z,481.5
2019-03-27T10:57:27.622Z,481.2
2019-03-27T10:58:30.432Z,481.5
2019-03-27T10:59:32.662Z,481.3
2019-03-27T11:00:34.884Z,481
2019-03-27T11:01:37.360Z,480.9
2019-03-27T11:02:39.561Z,481.1
2019-03-27T11:03:41.454Z,481.3
2019-03-27T11:04:43.672Z,481.3
2019-03-27T11:05:45.833Z,481.4
2019-03-27T11:06:48.303Z,481.2
2019-03-27T11:07:50.849Z,481.4
2019-03-27T11:08:53.322Z,481.4
2019-03-27T11:09:55.888Z,481.1
2019-03-27T11:10:58.382Z,481.4
2019-03-27T11:12:00.858Z,481
2019-03-27T11:13:03.350Z,480.9
2019-03-27T11:14:05.561Z,480.7
2019-03-27T11:15:07.579Z,480.8
2019-03-27T11:16:09.797Z,480.9
2019-03-27T11:17:12.279Z,480.9
2019-03-27T11:18:14.754Z,480.9
2019-03-27T11:19:17.214Z,481.1
2019-03-27T11:21:24.465Z,480.9
2019-03-27T11:22:26.931Z,480.9
2019-03-27T11:23:29.454Z,481
2019-03-27T11:24:31.927Z,481.3
2019-03-27T11:25:35.379Z,481.1
2019-03-27T11:26:37.840Z,481.1
2019-03-27T11:27:40.040Z,481.4
2019-03-27T11:28:42.559Z,481.2
2019-03-27T11:29:44.760Z,481.5
2019-03-27T11:31:51.966Z,481.1
2019-03-27T11:32:53.713Z,481.2
2019-03-27T11:33:56.202Z,481.4
2019-03-27T11:34:58.412Z,481.5
2019-03-27T11:36:00.896Z,481.7
2019-03-27T11:37:03.374Z,481.3
2019-03-27T11:38:05.845Z,481.8
2019-03-27T11:39:08.327Z,481.9
2019-03-27T11:40:10.522Z,482
2019-03-27T11:41:14.380Z,481.9
2019-03-27T11:42:16.574Z,482
2019-03-27T11:43:18.228Z,481.6
2019-03-27T11:44:20.704Z,481.6
2019-03-27T11:45:22.598Z,481.8
2019-03-27T11:46:24.808Z,481.5
2019-03-27T11:47:27.006Z,481.6
2019-03-27T11:48:29.183Z,481.8
2019-03-27T11:49:31.408Z,481.9
2019-03-27T11:51:38.918Z,482.1
2019-03-27T11:52:41.110Z,482.3
2019-03-27T11:53:43.582Z,482
2019-03-27T11:54:45.782Z,482
2019-03-27T11:55:47.984Z,482.1
2019-03-27T11:56:50.463Z,481.9
2019-03-27T11:57:52.749Z,482
2019-03-27T11:58:55.214Z,481.8
2019-03-27T11:59:57.678Z,482.4
2019-03-27T12:01:00.154Z,481.9
2019-03-27T12:02:02.620Z,482.1
2019-03-27T12:03:04.553Z,482
2019-03-27T12:04:07.083Z,481.7
2019-03-27T12:05:09.560Z,481.9
2019-03-27T12:06:12.031Z,482.1
2019-03-27T12:07:14.495Z,482.3
2019-03-27T12:08:16.662Z,482.2
2019-03-27T12:09:19.149Z,482.4
2019-03-27T12:10:21.622Z,482.4
2019-03-27T12:11:24.102Z,482.1
2019-03-27T12:12:26.293Z,482.5
2019-03-27T12:13:28.775Z,482.1
2019-03-27T12:14:31.257Z,482.4
2019-03-27T12:15:33.721Z,482.2
2019-03-27T12:16:35.923Z,482.5
2019-03-27T12:17:38.400Z,482.2
2019-03-27T12:18:40.602Z,482.8
2019-03-27T12:19:43.064Z,482.9
2019-03-27T12:21:51.015Z,482.5
2019-03-27T12:23:57.644Z,483.1
2019-03-27T12:24:59.578Z,483.3
2019-03-27T12:26:02.066Z,482.8
2019-03-27T12:27:04.542Z,482.7
2019-03-27T12:28:06.841Z,482.4
2019-03-27T12:29:08.789Z,482.8
2019-03-27T12:30:11.272Z,482.8
2019-03-27T12:31:13.474Z,482.9
2019-03-27T12:32:15.659Z,483.4
2019-03-27T12:33:18.162Z,482.9
2019-03-27T12:34:20.088Z,483
2019-03-27T12:35:22.573Z,483.4
2019-03-27T12:36:24.763Z,483.5
2019-03-27T12:37:27.233Z,483.5
2019-03-27T12:38:29.703Z,483.3
2019-03-27T12:39:32.246Z,483.2
2019-03-27T12:40:34.450Z,483.7
2019-03-27T12:41:36.372Z,483.8
2019-03-27T12:42:38.854Z,483.8
2019-03-27T12:43:41.327Z,483.8
2019-03-27T12:44:43.826Z,484.3
2019-03-27T12:45:46.304Z,484.4
2019-03-27T12:46:51.692Z,484.4
2019-03-27T12:47:55.737Z,484.2
2019-03-27T12:48:57.919Z,484.2
2019-03-27T12:50:00.155Z,484.2
2019-03-27T12:52:07.812Z,484.1
2019-03-27T12:53:10.353Z,484
2019-03-27T12:54:12.828Z,484.3
2019-03-27T12:55:15.304Z,484.1
2019-03-27T12:56:17.780Z,484.5
2019-03-27T12:57:20.255Z,484.5
2019-03-27T12:58:22.455Z,484.7
2019-03-27T12:59:24.928Z,484.7
2019-03-27T13:00:26.880Z,484.3
2019-03-27T13:01:29.390Z,484.3
2019-03-27T13:02:31.601Z,484.7
2019-03-27T13:03:34.088Z,484.5
2019-03-27T13:04:36.667Z,484.5
2019-03-27T13:05:38.846Z,484.4
2019-03-27T13:06:41.199Z,484.7
2019-03-27T13:09:53.427Z,484.4
2019-03-27T13:10:55.928Z,484.8
2019-03-27T13:11:57.872Z,484.8
2019-03-27T13:13:00.332Z,484.8
2019-03-27T13:14:02.530Z,484.9
2019-03-27T13:15:04.704Z,484.4
2019-03-27T13:16:07.170Z,484.5
2019-03-27T13:17:09.390Z,484.5
2019-03-27T13:18:11.861Z,484.4
2019-03-27T13:19:14.383Z,484.7
2019-03-27T13:20:16.879Z,484.6
2019-03-27T13:22:24.063Z,484.8
2019-03-27T13:23:26.558Z,484.6
2019-03-27T13:24:28.752Z,485.1
2019-03-27T13:25:31.241Z,484.9
2019-03-27T13:26:33.718Z,485.2
2019-03-27T13:27:36.216Z,485.1
2019-03-27T13:29:43.690Z,485.8
2019-03-27T13:30:46.168Z,485.3
2019-03-27T13:31:48.651Z,485.7
2019-03-27T13:32:51.119Z,485.6
2019-03-27T13:33:53.595Z,485.6
2019-03-27T13:34:56.079Z,485.9
2019-03-27T13:35:58.555Z,485.8
2019-03-27T13:37:01.035Z,485.5
2019-03-27T13:38:03.233Z,485.4
2019-03-27T13:39:05.710Z,486.3
2019-03-27T13:40:08.182Z,486
2019-03-27T13:41:10.378Z,486.3
2019-03-27T13:42:12.895Z,486.4
2019-03-27T13:43:15.369Z,486.2
2019-03-27T13:44:17.587Z,486.6
2019-03-27T13:45:20.071Z,486.6
2019-03-27T13:46:22.291Z,486.2
2019-03-27T13:47:24.764Z,485.8
2019-03-27T13:48:27.235Z,485.8
2019-03-27T13:49:29.430Z,486.2
2019-03-27T13:50:31.974Z,486.2
2019-03-27T13:52:39.430Z,485.9
2019-03-27T13:53:41.336Z,485.4
2019-03-27T13:54:43.801Z,486.4
2019-03-27T13:55:46.001Z,486.1
2019-03-27T13:56:47.945Z,485.8
2019-03-27T13:57:50.121Z,485.5
2019-03-27T13:58:52.664Z,486.1
2019-03-27T13:59:55.139Z,486.1
2019-03-27T14:00:57.644Z,485.4
2019-03-27T14:02:00.135Z,485.8
2019-03-27T14:03:02.613Z,485.7
2019-03-27T14:04:04.525Z,485.8
2019-03-27T14:05:06.999Z,485.8
2019-03-27T14:06:09.469Z,485.8